KFXE/FXE METAR and TAF weather

Enter ICAO airport designator
Station Type Date Time Source
KFXE METAR 2022/11/26 07:53 UTC NOAA

KFXE 260753Z 31004KT 10SM CLR 24/23 A3002 RMK AO2 SLP167 T02390228


Station Type Date Time Source
KFXE Decoded METAR 2022/11/26 07:53 UTC NOAA

FORT LAUDERDALE EXECUTIVE, FL, United States (KFXE) 26-12N 080-11W 6M
Nov 26, 2022 - 02:53 AM EST / 2022.11.26 0753 UTC
Wind: from the NW (310 degrees) at 5 MPH (4 KT):0
Visibility: 10 mile(s):0
Sky conditions: clear
Temperature: 75.0 F (23.9 C)
Dew Point: 73.0 F (22.8 C)
Relative Humidity: 93%
Pressure (altimeter): 30.02 in. Hg (1016 hPa)
ob: KFXE 260753Z 31004KT 10SM CLR 24/23 A3002 RMK AO2 SLP167 T02390228
cycle: 8

Station Type Date Time Source
KFXE TAF 2022/11/26 06:22 UTC NOAA

TAF KFXE 260520Z 2606/2706 VRB04KT P6SM FEW030
FM261500 11008KT P6SM SCT025 BKN250
FM270100 VRB05KT P6SM FEW025

Example: see airport list